< < Back
Terminal Aerodrome Forecast


Current Version              Previous Versions:   1  2  3  4  5  6  7  8  9  

Terminal Aerodrome Forecast

030
FTUS42 KMLB 291729
TAFDAB
TAF
KDAB 291729Z 2918/3018 07010KT P6SM SCT040
     FM300000 VRB03KT P6SM FEW060 BKN250
     FM301400 14007KT P6SM SCT025=

Latest METAR

069
SAUS80 KWBC 300900 RRA
MTRDAB
METAR KDAB 300853Z 17005KT 10SM FEW055 22/21 A2994 RMK AO2 SLP137
T02170206 58009


USA.gov is the U.S. government's official web portal to all federal, state and local government web resources and services.